createdAt,value
2022-10-15T00:01:52.012Z,99.90
2022-10-15T00:04:21.155Z,99.90
2022-10-15T00:06:49.742Z,99.90
2022-10-15T00:09:18.382Z,99.90
2022-10-15T00:11:47.016Z,99.90
2022-10-15T00:14:17.249Z,99.90
2022-10-15T00:16:46.665Z,99.90
2022-10-15T00:19:15.327Z,99.90
2022-10-15T00:21:43.958Z,99.90
2022-10-15T00:24:12.785Z,99.90
2022-10-15T00:26:41.381Z,99.90
2022-10-15T00:29:10.183Z,99.90
2022-10-15T00:31:40.338Z,99.90
2022-10-15T00:34:09.324Z,91.30
2022-10-15T00:36:38.286Z,99.90
2022-10-15T00:39:07.880Z,99.90
2022-10-15T00:41:38.614Z,1.00
2022-10-15T00:44:40.528Z,99.90
2022-10-15T00:47:17.264Z,99.90
2022-10-15T00:49:52.002Z,1.00
2022-10-15T00:52:25.084Z,1.00
2022-10-15T00:54:59.116Z,1.00
2022-10-15T00:57:28.229Z,1.00
2022-10-15T01:00:02.852Z,1.00
2022-10-15T01:02:34.056Z,1.00
2022-10-15T01:05:02.862Z,1.00
2022-10-15T01:07:32.191Z,1.00
2022-10-15T01:10:01.441Z,1.00
2022-10-15T01:12:43.969Z,1.00
2022-10-15T01:15:20.873Z,1.00
2022-10-15T01:17:55.267Z,1.00
2022-10-15T01:20:53.453Z,1.00
2022-10-15T01:24:10.517Z,1.00
2022-10-15T01:27:06.200Z,1.00
2022-10-15T01:29:52.128Z,1.00
2022-10-15T01:32:28.105Z,1.00
2022-10-15T01:35:01.280Z,29.50
2022-10-15T01:37:39.986Z,99.90
2022-10-15T01:40:13.215Z,99.90
2022-10-15T01:42:48.679Z,99.90
2022-10-15T01:45:22.345Z,1.00
2022-10-15T01:48:13.015Z,1.00
2022-10-15T01:50:47.963Z,1.00
2022-10-15T01:53:20.332Z,1.00
2022-10-15T01:55:50.827Z,1.00
2022-10-15T01:58:20.215Z,1.00
2022-10-15T02:00:49.701Z,1.00
2022-10-15T02:03:19.746Z,1.00
2022-10-15T02:05:54.639Z,1.00
2022-10-15T02:08:33.076Z,1.00
2022-10-15T02:11:06.232Z,1.00
2022-10-15T02:13:44.580Z,1.00
2022-10-15T02:16:17.632Z,1.00
2022-10-15T02:18:59.774Z,1.00
2022-10-15T02:21:33.891Z,8.10
2022-10-15T02:24:11.038Z,1.00
2022-10-15T02:26:41.557Z,1.00
2022-10-15T02:29:14.393Z,1.00
2022-10-15T02:31:45.287Z,1.00
2022-10-15T02:34:20.837Z,99.90
2022-10-15T02:36:50.949Z,1.00
2022-10-15T02:39:24.269Z,1.00
2022-10-15T02:41:53.827Z,1.00
2022-10-15T02:44:23.032Z,1.00
2022-10-15T02:46:51.635Z,1.00
2022-10-15T02:49:23.074Z,1.00
2022-10-15T02:51:52.922Z,1.00
2022-10-15T02:54:21.583Z,1.00
2022-10-15T02:56:50.272Z,1.00
2022-10-15T02:59:22.133Z,1.00
2022-10-15T03:01:51.683Z,1.00
2022-10-15T03:04:20.692Z,1.00
2022-10-15T03:06:50.897Z,1.00
2022-10-15T03:09:20.149Z,1.00
2022-10-15T03:11:49.401Z,1.00
2022-10-15T03:14:18.076Z,1.00
2022-10-15T03:16:47.035Z,1.00
2022-10-15T03:19:15.671Z,1.00
2022-10-15T03:21:46.831Z,1.00
2022-10-15T03:24:18.928Z,1.00
2022-10-15T03:26:48.073Z,1.00
2022-10-15T03:29:16.859Z,1.00
2022-10-15T03:31:52.852Z,1.00
2022-10-15T03:34:22.796Z,1.00
2022-10-15T03:36:51.819Z,1.00
2022-10-15T03:39:22.075Z,1.00
2022-10-15T03:41:55.204Z,1.00
2022-10-15T03:44:31.720Z,35.50
2022-10-15T03:47:07.846Z,99.90
2022-10-15T03:49:50.375Z,99.90
2022-10-15T03:52:19.090Z,99.90
2022-10-15T03:54:50.903Z,99.90
2022-10-15T03:57:21.924Z,99.90
2022-10-15T03:59:55.714Z,99.90
2022-10-15T04:02:27.014Z,99.90
2022-10-15T04:04:58.267Z,99.90
2022-10-15T04:07:27.924Z,1.00
2022-10-15T04:09:57.988Z,1.00
2022-10-15T04:12:31.547Z,1.00
2022-10-15T04:15:00.184Z,1.00
2022-10-15T04:17:31.832Z,99.90
2022-10-15T04:20:00.531Z,1.00
2022-10-15T04:22:29.251Z,1.00
2022-10-15T04:25:03.724Z,1.00
2022-10-15T04:27:32.487Z,99.90
2022-10-15T04:30:13.109Z,1.00
2022-10-15T04:32:53.259Z,99.90
2022-10-15T04:35:23.016Z,99.90
2022-10-15T04:38:05.973Z,99.90
2022-10-15T04:41:02.818Z,99.90
2022-10-15T04:43:44.095Z,99.90
2022-10-15T04:46:14.872Z,1.00
2022-10-15T04:48:43.619Z,88.60
2022-10-15T04:51:17.227Z,1.00
2022-10-15T04:54:02.261Z,1.00
2022-10-15T04:56:33.758Z,1.00
2022-10-15T04:59:02.485Z,1.00
2022-10-15T05:01:33.835Z,1.00
2022-10-15T05:04:12.202Z,1.00
2022-10-15T05:06:42.160Z,1.00
2022-10-15T05:09:20.369Z,1.00
2022-10-15T05:11:53.334Z,1.00
2022-10-15T05:14:22.002Z,1.00
2022-10-15T05:17:06.562Z,1.00
2022-10-15T05:19:41.006Z,1.00
2022-10-15T05:22:16.791Z,99.90
2022-10-15T05:24:51.581Z,1.00
2022-10-15T05:27:40.383Z,99.90
2022-10-15T05:30:10.052Z,99.90
2022-10-15T05:32:45.869Z,99.90
2022-10-15T05:35:18.727Z,1.00
2022-10-15T05:38:05.751Z,99.90
2022-10-15T05:40:35.003Z,99.90
2022-10-15T05:43:10.282Z,99.90
2022-10-15T05:45:38.963Z,99.90
2022-10-15T05:48:09.126Z,99.90
2022-10-15T05:50:38.230Z,99.90
2022-10-15T05:53:10.903Z,99.90
2022-10-15T05:56:02.207Z,99.90
2022-10-15T05:58:37.383Z,43.20
2022-10-15T06:01:08.701Z,1.00
2022-10-15T06:03:41.470Z,1.00
2022-10-15T06:06:19.213Z,1.00
2022-10-15T06:08:48.699Z,1.00
2022-10-15T06:11:18.193Z,1.00
2022-10-15T06:13:48.565Z,1.00
2022-10-15T06:16:22.551Z,1.00
2022-10-15T06:18:54.241Z,1.00
2022-10-15T06:21:22.950Z,1.00
2022-10-15T06:23:51.742Z,1.00
2022-10-15T06:26:20.432Z,1.00
2022-10-15T06:28:51.224Z,1.00
2022-10-15T06:31:19.897Z,1.00
2022-10-15T06:33:48.507Z,1.00
2022-10-15T06:36:17.493Z,1.00
2022-10-15T06:38:48.791Z,1.00
2022-10-15T06:41:18.619Z,1.00
2022-10-15T06:46:21.404Z,1.00
2022-10-15T06:48:51.971Z,1.00
2022-10-15T06:51:21.470Z,1.00
2022-10-15T06:53:52.159Z,1.00
2022-10-15T06:56:20.904Z,99.90
2022-10-15T06:58:49.610Z,1.00
2022-10-15T07:01:19.691Z,99.90
2022-10-15T07:03:50.890Z,99.90
2022-10-15T07:06:20.265Z,99.90
2022-10-15T07:08:49.149Z,99.90
2022-10-15T07:11:18.355Z,99.90
2022-10-15T07:13:47.091Z,99.90
2022-10-15T07:16:15.796Z,99.90
2022-10-15T07:18:45.833Z,99.90
2022-10-15T07:21:14.533Z,99.90
2022-10-15T07:23:43.180Z,99.90
2022-10-15T07:26:12.054Z,99.90
2022-10-15T07:28:40.926Z,47.20
2022-10-15T07:31:09.952Z,5.90
2022-10-15T07:33:38.671Z,3.30
2022-10-15T07:36:11.324Z,92.60
2022-10-15T07:38:41.350Z,9.60
2022-10-15T07:41:11.470Z,26.50
2022-10-15T07:43:44.616Z,1.00
2022-10-15T07:46:13.651Z,1.00
2022-10-15T07:48:42.623Z,1.00
2022-10-15T07:51:13.538Z,1.00
2022-10-15T07:53:44.074Z,1.00
2022-10-15T07:56:13.947Z,1.00
2022-10-15T07:58:43.471Z,1.00
2022-10-15T08:01:12.779Z,1.00
2022-10-15T08:03:41.615Z,1.00
2022-10-15T08:06:10.356Z,1.00
2022-10-15T08:08:40.518Z,1.00
2022-10-15T08:11:10.091Z,1.00
2022-10-15T08:13:41.459Z,1.00
2022-10-15T08:16:11.063Z,1.00
2022-10-15T08:18:42.048Z,1.00
2022-10-15T08:21:12.096Z,1.00
2022-10-15T08:23:42.136Z,1.00
2022-10-15T08:26:11.715Z,1.00
2022-10-15T08:28:40.514Z,1.00
2022-10-15T08:31:09.255Z,1.00
2022-10-15T08:33:38.781Z,1.00
2022-10-15T08:36:08.888Z,1.00
2022-10-15T08:38:38.037Z,1.00
2022-10-15T08:41:21.099Z,1.00
2022-10-15T08:43:51.646Z,1.00
2022-10-15T08:46:24.999Z,1.00
2022-10-15T08:48:57.519Z,1.00
2022-10-15T08:51:28.946Z,1.00
2022-10-15T08:54:01.449Z,1.00
2022-10-15T08:56:36.871Z,1.00
2022-10-15T08:59:18.407Z,1.00
2022-10-15T09:01:54.180Z,1.00
2022-10-15T09:04:32.327Z,1.00
2022-10-15T09:07:08.666Z,1.00
2022-10-15T09:09:45.658Z,1.00
2022-10-15T09:12:31.399Z,1.00
2022-10-15T09:15:02.032Z,1.00
2022-10-15T09:17:36.506Z,1.00
2022-10-15T09:20:08.875Z,1.00
2022-10-15T09:22:37.628Z,1.00
2022-10-15T09:25:17.061Z,1.00
2022-10-15T09:27:48.825Z,1.00
2022-10-15T09:30:30.155Z,1.00
2022-10-15T09:33:04.428Z,1.00
2022-10-15T09:35:38.369Z,1.00
2022-10-15T09:38:24.734Z,99.90
2022-10-15T09:41:04.885Z,1.00
2022-10-15T09:43:41.009Z,1.00
2022-10-15T09:46:10.809Z,1.00
2022-10-15T09:48:47.088Z,1.00
2022-10-15T09:51:25.374Z,1.00
2022-10-15T09:54:01.439Z,1.00
2022-10-15T09:56:37.294Z,1.00
2022-10-15T09:59:09.565Z,1.00
2022-10-15T10:01:38.646Z,1.00
2022-10-15T10:04:18.301Z,1.00
2022-10-15T10:06:49.447Z,1.00
2022-10-15T10:09:21.308Z,1.00
2022-10-15T10:11:53.578Z,1.00
2022-10-15T10:14:34.037Z,1.00
2022-10-15T10:17:19.871Z,1.00
2022-10-15T10:20:06.545Z,1.00
2022-10-15T10:22:46.590Z,1.00
2022-10-15T10:25:30.947Z,1.00
2022-10-15T10:28:06.103Z,69.00
2022-10-15T10:30:39.938Z,11.80
2022-10-15T10:33:08.789Z,55.80
2022-10-15T10:35:47.353Z,82.80
2022-10-15T10:38:23.856Z,1.00
2022-10-15T10:40:55.410Z,1.00
2022-10-15T10:43:27.428Z,1.00
2022-10-15T10:45:59.851Z,1.00
2022-10-15T10:48:30.430Z,1.00
2022-10-15T10:51:13.061Z,1.00
2022-10-15T10:53:54.964Z,1.00
2022-10-15T10:56:27.006Z,1.00
2022-10-15T10:59:01.813Z,1.00
2022-10-15T11:01:32.672Z,1.00
2022-10-15T11:04:03.036Z,1.00
2022-10-15T11:06:56.128Z,1.00
2022-10-15T11:09:40.194Z,1.00
2022-10-15T11:12:35.018Z,1.00
2022-10-15T11:15:15.827Z,1.00
2022-10-15T11:17:53.640Z,1.00
2022-10-15T11:20:47.502Z,1.00
2022-10-15T11:23:34.651Z,1.00
2022-10-15T11:26:12.269Z,28.10
2022-10-15T11:28:51.762Z,1.00
2022-10-15T11:31:28.503Z,1.00
2022-10-15T11:34:15.283Z,1.00
2022-10-15T11:36:58.761Z,1.00
2022-10-15T11:39:42.474Z,1.00
2022-10-15T11:42:19.431Z,1.00
2022-10-15T11:45:04.611Z,1.00
2022-10-15T11:47:45.674Z,1.00
2022-10-15T11:50:30.509Z,1.00
2022-10-15T11:53:50.438Z,1.00
2022-10-15T11:56:26.780Z,1.00
2022-10-15T11:59:01.086Z,1.00
2022-10-15T12:01:37.240Z,1.00
2022-10-15T12:04:14.966Z,1.00
2022-10-15T12:06:50.188Z,1.00
2022-10-15T12:09:24.636Z,1.00
2022-10-15T12:12:02.069Z,1.00
2022-10-15T12:14:41.678Z,1.00
2022-10-15T12:23:27.935Z,1.00
2022-10-15T12:29:37.946Z,1.00
2022-10-15T12:32:25.907Z,1.00
2022-10-15T12:34:59.179Z,1.00
2022-10-15T12:37:30.071Z,1.00
2022-10-15T12:40:02.934Z,1.00
2022-10-15T12:42:35.795Z,1.00
2022-10-15T12:45:07.308Z,1.00
2022-10-15T12:47:49.899Z,1.00
2022-10-15T12:50:21.826Z,1.00
2022-10-15T12:53:00.029Z,1.00
2022-10-15T12:55:35.713Z,1.00
2022-10-15T12:58:07.446Z,1.00
2022-10-15T13:00:39.282Z,1.00
2022-10-15T13:03:26.706Z,1.00
2022-10-15T13:05:56.028Z,1.00
2022-10-15T13:08:44.147Z,1.00
2022-10-15T13:11:23.737Z,1.00
2022-10-15T13:13:59.370Z,1.00
2022-10-15T13:16:28.351Z,1.00
2022-10-15T13:18:59.199Z,1.00
2022-10-15T13:21:50.102Z,1.00
2022-10-15T13:24:21.038Z,1.00
2022-10-15T13:26:51.881Z,1.00
2022-10-15T13:29:22.805Z,1.00
2022-10-15T13:31:52.424Z,1.00
2022-10-15T13:34:28.655Z,1.00
2022-10-15T13:36:59.668Z,1.00
2022-10-15T13:42:11.362Z,1.00
2022-10-15T13:44:40.366Z,1.00
2022-10-15T13:47:27.365Z,1.00
2022-10-15T13:50:15.028Z,1.00
2022-10-15T13:52:47.096Z,1.00
2022-10-15T13:55:23.911Z,1.00
2022-10-15T13:58:01.947Z,1.00
2022-10-15T14:00:34.151Z,1.00
2022-10-15T14:03:18.796Z,1.00
2022-10-15T14:05:49.229Z,1.00
2022-10-15T14:08:21.311Z,1.00
2022-10-15T14:10:51.127Z,99.90
2022-10-15T14:13:21.611Z,1.00
2022-10-15T14:15:58.546Z,1.00
2022-10-15T14:18:35.503Z,1.00
2022-10-15T14:21:04.478Z,1.00
2022-10-15T14:23:33.278Z,1.00
2022-10-15T14:26:04.073Z,1.00
2022-10-15T14:28:35.755Z,1.00
2022-10-15T14:31:05.233Z,1.00
2022-10-15T14:33:46.433Z,1.00
2022-10-15T14:36:27.259Z,1.00
2022-10-15T14:38:56.865Z,1.00
2022-10-15T14:41:31.056Z,1.00
2022-10-15T14:44:18.103Z,1.00
2022-10-15T14:46:50.236Z,1.00
2022-10-15T14:49:27.744Z,1.00
2022-10-15T14:52:00.078Z,1.00
2022-10-15T14:54:36.065Z,1.00
2022-10-15T14:57:05.753Z,1.00
2022-10-15T14:59:38.540Z,1.00
2022-10-15T15:02:15.062Z,1.00
2022-10-15T15:04:45.971Z,1.00
2022-10-15T15:07:18.015Z,1.00
2022-10-15T15:09:49.611Z,1.00
2022-10-15T15:12:27.076Z,1.00
2022-10-15T15:14:58.155Z,1.00
2022-10-15T15:17:28.428Z,99.90
2022-10-15T15:19:58.513Z,99.90
2022-10-15T15:22:32.001Z,99.90
2022-10-15T15:25:04.022Z,99.90
2022-10-15T15:27:37.305Z,1.00
2022-10-15T15:30:09.397Z,1.00
2022-10-15T15:32:38.013Z,1.00
2022-10-15T15:35:17.751Z,1.00
2022-10-15T15:37:46.938Z,1.00
2022-10-15T15:40:15.783Z,1.00
2022-10-15T15:42:45.287Z,1.00
2022-10-15T15:45:21.038Z,1.00
2022-10-15T15:47:49.936Z,35.70
2022-10-15T15:50:19.234Z,99.90
2022-10-15T15:52:48.335Z,1.00
2022-10-15T15:55:17.596Z,1.00
2022-10-15T15:57:48.401Z,1.00
2022-10-15T16:00:18.898Z,99.90
2022-10-15T16:02:47.766Z,1.00
2022-10-15T16:05:17.896Z,1.00
2022-10-15T16:07:46.973Z,1.00
2022-10-15T16:10:15.649Z,1.00
2022-10-15T16:12:44.759Z,1.00
2022-10-15T16:15:14.883Z,1.00
2022-10-15T16:17:45.521Z,1.00
2022-10-15T16:20:15.042Z,1.00
2022-10-15T16:22:43.759Z,1.00
2022-10-15T16:25:12.410Z,1.00
2022-10-15T16:27:41.048Z,1.00
2022-10-15T16:30:11.003Z,99.90
2022-10-15T16:32:39.634Z,99.90
2022-10-15T16:35:10.665Z,94.60
2022-10-15T16:37:39.504Z,11.70
2022-10-15T16:40:09.645Z,1.00
2022-10-15T16:42:39.428Z,1.00
2022-10-15T16:45:09.013Z,99.90
2022-10-15T16:47:37.626Z,4.10
2022-10-15T16:50:07.170Z,1.00
2022-10-15T16:52:37.259Z,1.00
2022-10-15T16:55:06.467Z,99.90
2022-10-15T16:57:35.064Z,99.90
2022-10-15T17:00:04.354Z,99.90
2022-10-15T17:02:33.013Z,99.90
2022-10-15T17:05:01.616Z,99.90
2022-10-15T17:07:31.615Z,82.20
2022-10-15T17:10:01.806Z,99.90
2022-10-15T17:12:31.855Z,1.00
2022-10-15T17:15:00.578Z,99.90
2022-10-15T17:17:29.354Z,99.90
2022-10-15T17:19:57.960Z,1.00
2022-10-15T17:22:26.928Z,1.00
2022-10-15T17:24:55.800Z,1.00
2022-10-15T17:27:25.932Z,1.00
2022-10-15T17:29:54.546Z,1.00
2022-10-15T17:32:23.435Z,1.00
2022-10-15T17:34:52.284Z,1.00
2022-10-15T17:37:21.087Z,99.90
2022-10-15T17:39:49.978Z,99.90
2022-10-15T17:42:18.908Z,99.90
2022-10-15T17:44:49.008Z,99.90
2022-10-15T17:47:17.665Z,99.90
2022-10-15T17:49:46.376Z,99.90
2022-10-15T17:52:16.569Z,81.30
2022-10-15T17:54:46.019Z,1.00
2022-10-15T17:57:14.719Z,1.00
2022-10-15T17:59:45.341Z,18.50
2022-10-15T18:02:17.866Z,1.00
2022-10-15T18:04:50.394Z,1.00
2022-10-15T18:07:19.951Z,1.00
2022-10-15T18:09:48.543Z,1.00
2022-10-15T18:12:17.165Z,1.00
2022-10-15T18:14:46.105Z,1.00
2022-10-15T18:17:21.594Z,1.00
2022-10-15T18:19:50.543Z,1.00
2022-10-15T18:22:20.525Z,1.00
2022-10-15T18:24:49.562Z,1.00
2022-10-15T18:27:18.349Z,1.00
2022-10-15T18:29:46.973Z,1.00
2022-10-15T18:32:15.675Z,1.00
2022-10-15T18:34:45.844Z,1.00
2022-10-15T18:37:14.565Z,1.00
2022-10-15T18:39:43.164Z,1.00
2022-10-15T18:42:11.832Z,1.00
2022-10-15T18:44:40.547Z,1.00
2022-10-15T18:47:09.213Z,1.00
2022-10-15T18:49:45.297Z,1.00
2022-10-15T18:52:21.648Z,1.00
2022-10-15T18:54:57.035Z,1.00
2022-10-15T18:57:25.849Z,1.00
2022-10-15T18:59:54.508Z,1.00
2022-10-15T19:02:23.526Z,1.00
2022-10-15T19:04:53.952Z,1.00
2022-10-15T19:07:22.563Z,1.00
2022-10-15T19:09:51.345Z,1.00
2022-10-15T19:12:24.768Z,1.00
2022-10-15T19:14:53.622Z,1.00
2022-10-15T19:17:22.349Z,1.00
2022-10-15T19:19:51.121Z,1.00
2022-10-15T19:22:21.207Z,1.00
2022-10-15T19:24:49.921Z,1.00
2022-10-15T19:27:18.588Z,1.00
2022-10-15T19:29:47.358Z,1.00
2022-10-15T19:32:16.182Z,1.00
2022-10-15T19:34:44.845Z,1.00
2022-10-15T19:37:13.580Z,1.00
2022-10-15T19:39:51.491Z,1.00
2022-10-15T19:42:22.955Z,1.00
2022-10-15T19:44:51.658Z,1.00
2022-10-15T19:47:21.079Z,1.00
2022-10-15T19:49:51.405Z,1.00
2022-10-15T19:52:20.198Z,1.00
2022-10-15T19:54:54.342Z,1.00
2022-10-15T19:57:23.483Z,1.00
2022-10-15T19:59:52.442Z,1.00
2022-10-15T20:02:21.154Z,1.00
2022-10-15T20:04:49.805Z,1.00
2022-10-15T20:07:18.774Z,1.00
2022-10-15T20:09:47.772Z,1.00
2022-10-15T20:12:17.783Z,1.00
2022-10-15T20:14:46.531Z,1.00
2022-10-15T20:17:15.221Z,1.00
2022-10-15T20:19:43.863Z,1.00
2022-10-15T20:22:12.584Z,1.00
2022-10-15T20:24:41.331Z,1.00
2022-10-15T20:27:10.051Z,1.00
2022-10-15T20:29:40.087Z,1.00
2022-10-15T20:32:23.388Z,1.00
2022-10-15T20:35:02.485Z,1.00
2022-10-15T20:37:32.280Z,1.00
2022-10-15T20:40:01.056Z,1.00
2022-10-15T20:42:34.208Z,1.00
2022-10-15T20:45:05.188Z,1.00
2022-10-15T20:47:34.882Z,1.00
2022-10-15T20:50:05.594Z,1.00
2022-10-15T20:52:35.665Z,1.00
2022-10-15T20:55:04.917Z,1.00
2022-10-15T20:57:33.835Z,1.00
2022-10-15T21:00:04.041Z,1.00
2022-10-15T21:02:33.885Z,1.00
2022-10-15T21:05:02.721Z,1.00
2022-10-15T21:07:32.056Z,1.00
2022-10-15T21:10:00.792Z,1.00
2022-10-15T21:12:29.529Z,1.00
2022-10-15T21:14:58.646Z,1.00
2022-10-15T21:17:28.959Z,1.00
2022-10-15T21:19:57.900Z,1.00
2022-10-15T21:22:26.616Z,1.00
2022-10-15T21:24:55.302Z,1.00
2022-10-15T21:27:24.239Z,1.00
2022-10-15T21:29:53.199Z,1.00
2022-10-15T21:32:21.909Z,1.00
2022-10-15T21:34:51.966Z,1.00
2022-10-15T21:37:20.641Z,1.00
2022-10-15T21:39:49.307Z,1.00
2022-10-15T21:42:18.163Z,1.00
2022-10-15T21:44:47.069Z,1.00
2022-10-15T21:47:15.765Z,1.00
2022-10-15T21:49:45.890Z,1.00
2022-10-15T21:52:15.991Z,1.00
2022-10-15T21:54:44.690Z,37.50
2022-10-15T21:57:13.375Z,27.60
2022-10-15T21:59:42.056Z,99.90
2022-10-15T22:02:11.059Z,99.90
2022-10-15T22:04:39.845Z,99.90
2022-10-15T22:07:09.331Z,99.90
2022-10-15T22:09:39.369Z,76.30
2022-10-15T22:12:08.148Z,99.90
2022-10-15T22:14:37.137Z,99.90
2022-10-15T22:17:06.032Z,99.90
2022-10-15T22:19:34.717Z,99.90
2022-10-15T22:22:03.417Z,99.90
2022-10-15T22:24:32.863Z,99.90
2022-10-15T22:27:02.917Z,99.90
2022-10-15T22:29:34.575Z,99.90
2022-10-15T22:32:05.102Z,99.90
2022-10-15T22:34:33.815Z,99.90
2022-10-15T22:37:02.482Z,99.90
2022-10-15T22:39:31.203Z,99.90
2022-10-15T22:41:59.889Z,99.90
2022-10-15T22:44:29.973Z,99.90
2022-10-15T22:46:58.613Z,99.90
2022-10-15T22:49:27.484Z,99.90
2022-10-15T22:51:56.147Z,99.90
2022-10-15T22:54:25.049Z,99.90
2022-10-15T22:56:53.737Z,99.90
2022-10-15T22:59:22.623Z,99.90
2022-10-15T23:01:52.668Z,99.90
2022-10-15T23:04:21.511Z,99.90
2022-10-15T23:06:50.115Z,99.90
2022-10-15T23:09:20.000Z,99.90
2022-10-15T23:11:48.627Z,99.90
2022-10-15T23:14:18.623Z,1.00
2022-10-15T23:16:48.634Z,99.90
2022-10-15T23:19:20.219Z,1.00
2022-10-15T23:21:50.353Z,99.90
2022-10-15T23:24:21.348Z,99.90
2022-10-15T23:26:50.137Z,99.90
2022-10-15T23:29:20.477Z,1.00
2022-10-15T23:31:50.138Z,99.90
2022-10-15T23:34:21.857Z,99.90
2022-10-15T23:36:51.296Z,99.90
2022-10-15T23:39:21.776Z,99.90
2022-10-15T23:41:50.655Z,99.90
2022-10-15T23:44:19.427Z,99.90
2022-10-15T23:46:48.265Z,99.90
2022-10-15T23:49:17.095Z,99.90
2022-10-15T23:51:47.143Z,99.90
2022-10-15T23:54:17.945Z,1.00
2022-10-15T23:56:47.253Z,99.90
2022-10-15T23:59:16.785Z,1.00
